createdAt,value
2018-12-15T00:00:40.693Z,27.82
2018-12-15T00:03:09.803Z,29.30
2018-12-15T00:05:50.980Z,22.48
2018-12-15T00:08:20.560Z,23.15
2018-12-15T00:11:01.766Z,22.10
2018-12-15T00:13:31.647Z,26.10
2018-12-15T00:16:12.870Z,30.85
2018-12-15T00:18:43.658Z,26.65
2018-12-15T00:21:24.894Z,30.60
2018-12-15T00:23:53.753Z,28.50
2018-12-15T00:26:34.943Z,24.92
2018-12-15T00:29:04.027Z,28.42
2018-12-15T00:31:45.222Z,27.40
2018-12-15T00:34:14.090Z,24.60
2018-12-15T00:36:55.286Z,26.37
2018-12-15T00:39:24.155Z,25.23
2018-12-15T00:42:05.389Z,25.23
2018-12-15T00:44:34.370Z,25.75
2018-12-15T00:47:15.558Z,27.58
2018-12-15T00:49:44.676Z,26.82
2018-12-15T00:52:25.873Z,27.42
2018-12-15T00:54:54.845Z,26.35
2018-12-15T00:57:36.041Z,26.87
2018-12-15T01:00:05.724Z,29.35
2018-12-15T01:02:47.642Z,26.27
2018-12-15T01:05:17.341Z,27.85
2018-12-15T01:07:58.556Z,26.17
2018-12-15T01:10:27.674Z,25.25
2018-12-15T01:13:09.022Z,22.58
2018-12-15T01:15:43.639Z,20.43
2018-12-15T01:18:24.821Z,25.20
2018-12-15T01:20:53.695Z,24.18
2018-12-15T01:23:34.989Z,24.70
2018-12-15T01:26:04.201Z,26.07
2018-12-15T01:28:45.394Z,23.75
2018-12-15T01:31:15.580Z,23.62
2018-12-15T01:33:56.841Z,27.67
2018-12-15T01:36:25.714Z,26.85
2018-12-15T01:39:08.478Z,25.95
2018-12-15T01:41:37.777Z,22.48
2018-12-15T01:44:19.026Z,26.55
2018-12-15T01:46:47.985Z,26.10
2018-12-15T01:49:29.170Z,23.42
2018-12-15T01:51:58.162Z,24.30
2018-12-15T01:54:39.409Z,25.70
2018-12-15T01:57:08.390Z,28.17
2018-12-15T01:59:49.594Z,27.87
2018-12-15T02:02:18.942Z,28.47
2018-12-15T02:05:00.152Z,25.43
2018-12-15T02:07:29.045Z,24.55
2018-12-15T02:10:10.518Z,31.23
2018-12-15T02:12:39.592Z,24.52
2018-12-15T02:15:20.892Z,25.50
2018-12-15T02:17:49.866Z,23.32
2018-12-15T02:20:31.250Z,24.15
2018-12-15T02:23:00.322Z,25.62
2018-12-15T02:25:41.529Z,19.12
2018-12-15T02:28:10.698Z,20.08
2018-12-15T02:30:51.919Z,22.40
2018-12-15T02:33:20.908Z,27.55
2018-12-15T02:36:02.101Z,26.02
2018-12-15T02:38:32.366Z,26.40
2018-12-15T02:41:14.943Z,23.35
2018-12-15T02:43:44.356Z,24.02
2018-12-15T02:46:25.559Z,23.00
2018-12-15T02:48:54.540Z,26.17
2018-12-15T02:51:35.734Z,25.95
2018-12-15T02:54:04.804Z,27.60
2018-12-15T02:56:46.025Z,22.62
2018-12-15T02:59:17.461Z,24.52
2018-12-15T03:01:59.689Z,27.60
2018-12-15T03:04:28.751Z,27.35
2018-12-15T03:07:09.946Z,28.90
2018-12-15T03:09:38.913Z,27.48
2018-12-15T03:12:20.099Z,27.85
2018-12-15T03:14:49.079Z,23.75
2018-12-15T03:17:30.435Z,25.85
2018-12-15T03:20:01.608Z,26.27
2018-12-15T03:22:42.811Z,28.00
2018-12-15T03:25:12.029Z,24.00
2018-12-15T03:27:53.213Z,30.27
2018-12-15T03:30:22.190Z,27.70
2018-12-15T03:33:03.392Z,25.65
2018-12-15T03:35:32.965Z,25.75
2018-12-15T03:38:14.149Z,26.55
2018-12-15T03:40:44.911Z,28.83
2018-12-15T03:43:26.102Z,27.20
2018-12-15T03:45:55.183Z,21.97
2018-12-15T03:48:36.370Z,28.67
2018-12-15T03:51:05.490Z,25.37
2018-12-15T03:53:46.745Z,23.38
2018-12-15T03:56:17.116Z,24.57
2018-12-15T03:58:58.331Z,20.82
2018-12-15T04:01:27.195Z,24.67
2018-12-15T04:04:08.410Z,28.70
2018-12-15T04:06:37.808Z,24.35
2018-12-15T04:09:19.105Z,25.85
2018-12-15T04:18:51.782Z,24.30
2018-12-15T04:21:21.035Z,26.17
2018-12-15T04:24:02.114Z,25.17
2018-12-15T04:26:30.965Z,28.23
2018-12-15T04:29:12.607Z,29.30
2018-12-15T04:31:41.825Z,27.93
2018-12-15T04:34:22.977Z,33.70
2018-12-15T04:39:32.648Z,29.60
2018-12-15T04:42:01.738Z,28.95
2018-12-15T04:44:42.813Z,28.83
2018-12-15T04:47:12.510Z,26.95
2018-12-15T04:49:53.527Z,33.95
2018-12-15T04:52:22.704Z,27.25
2018-12-15T04:55:04.127Z,29.48
2018-12-15T04:57:33.274Z,30.77
2018-12-15T05:00:14.887Z,30.57
2018-12-15T05:02:44.263Z,31.37
2018-12-15T05:05:25.383Z,27.25
2018-12-15T05:07:54.454Z,25.77
2018-12-15T05:10:35.470Z,29.02
2018-12-15T05:13:04.433Z,33.33
2018-12-15T05:15:45.439Z,31.60
2018-12-15T05:18:18.191Z,31.65
2018-12-15T05:20:58.193Z,34.40
2018-12-15T05:23:27.176Z,35.78
2018-12-15T05:26:08.178Z,32.53
2018-12-15T05:28:37.134Z,34.38
2018-12-15T05:31:18.132Z,33.08
2018-12-15T05:33:47.595Z,31.73
2018-12-15T05:36:28.598Z,35.10
2018-12-15T05:38:57.961Z,36.68
2018-12-15T05:41:39.342Z,36.35
2018-12-15T05:44:08.462Z,29.52
2018-12-15T05:46:49.454Z,38.95
2018-12-15T05:49:18.502Z,39.73
2018-12-15T05:51:59.497Z,29.27
2018-12-15T05:54:30.256Z,30.95
2018-12-15T05:57:11.262Z,37.58
2018-12-15T05:59:40.282Z,34.75
2018-12-15T06:02:22.015Z,34.75
2018-12-15T06:04:51.610Z,28.35
2018-12-15T06:07:32.781Z,26.00
2018-12-15T06:10:01.781Z,30.85
2018-12-15T06:12:42.784Z,32.83
2018-12-15T06:15:11.736Z,28.85
2018-12-15T06:17:53.748Z,26.40
2018-12-15T06:20:23.040Z,28.40
2018-12-15T06:23:04.065Z,36.03
2018-12-15T06:25:33.053Z,33.83
2018-12-15T06:28:14.082Z,27.17
2018-12-15T06:30:43.146Z,32.50
2018-12-15T06:33:24.510Z,31.77
2018-12-15T06:35:53.686Z,31.60
2018-12-15T06:38:34.687Z,31.48
2018-12-15T06:41:03.754Z,40.25
2018-12-15T06:43:45.230Z,32.70
2018-12-15T06:46:14.550Z,29.75
2018-12-15T06:48:56.350Z,28.92
2018-12-15T06:51:25.777Z,29.90
2018-12-15T06:54:07.029Z,31.62
2018-12-15T06:56:36.224Z,30.00
2018-12-15T06:59:19.509Z,32.20
2018-12-15T07:01:51.306Z,31.15
2018-12-15T07:04:37.313Z,36.58
2018-12-15T07:07:06.339Z,33.98
2018-12-15T07:09:47.382Z,35.70
2018-12-15T07:12:16.353Z,33.83
2018-12-15T07:14:57.457Z,30.65
2018-12-15T07:17:27.079Z,31.65
2018-12-15T07:20:08.230Z,34.00
2018-12-15T07:22:38.718Z,28.10
2018-12-15T07:25:20.167Z,31.50
2018-12-15T07:27:49.148Z,37.85
2018-12-15T07:30:31.259Z,32.33
2018-12-15T07:33:00.881Z,34.78
2018-12-15T07:35:42.034Z,31.37
2018-12-15T07:38:10.887Z,34.50
2018-12-15T07:40:51.919Z,30.52
2018-12-15T07:43:21.589Z,31.33
2018-12-15T07:46:02.670Z,27.60
2018-12-15T07:48:32.122Z,29.30
2018-12-15T07:51:13.183Z,31.65
2018-12-15T07:53:42.044Z,30.85
2018-12-15T07:56:26.176Z,33.35
2018-12-15T07:58:56.667Z,29.80
2018-12-15T08:01:37.803Z,29.90
2018-12-15T08:04:06.933Z,30.12
2018-12-15T08:06:48.765Z,29.50
2018-12-15T08:09:18.222Z,32.35
2018-12-15T08:12:04.858Z,31.48
2018-12-15T08:14:34.887Z,30.85
2018-12-15T08:17:15.986Z,37.42
2018-12-15T08:19:45.497Z,34.13
2018-12-15T08:22:27.167Z,28.57
2018-12-15T08:24:58.189Z,31.57
2018-12-15T08:27:39.742Z,29.30
2018-12-15T08:30:10.413Z,25.75
2018-12-15T08:32:51.469Z,32.08
2018-12-15T08:35:22.282Z,27.95
2018-12-15T08:38:03.983Z,32.48
2018-12-15T08:40:33.353Z,31.48
2018-12-15T08:43:14.497Z,31.55
2018-12-15T08:45:45.263Z,30.70
2018-12-15T08:48:26.301Z,30.10
2018-12-15T08:50:56.737Z,32.55
2018-12-15T08:53:37.874Z,32.67
2018-12-15T08:56:07.161Z,31.27
2018-12-15T08:58:48.185Z,36.20
2018-12-15T09:01:18.945Z,39.38
2018-12-15T09:04:00.058Z,31.75
2018-12-15T09:06:28.934Z,50.67
2018-12-15T09:09:10.167Z,26.50
2018-12-15T09:11:39.194Z,32.03
2018-12-15T09:14:21.595Z,32.03
2018-12-15T09:16:50.934Z,33.33
2018-12-15T09:19:32.222Z,34.40
2018-12-15T09:22:01.777Z,31.00
2018-12-15T09:24:43.373Z,33.63
2018-12-15T09:27:12.686Z,33.18
2018-12-15T09:29:53.962Z,37.03
2018-12-15T09:32:22.985Z,36.08
2018-12-15T09:35:04.766Z,33.38
2018-12-15T09:37:33.974Z,29.50
2018-12-15T09:40:15.357Z,35.40
2018-12-15T09:42:46.170Z,30.23
2018-12-15T09:45:27.305Z,33.88
2018-12-15T09:47:56.930Z,37.70
2018-12-15T09:50:38.653Z,31.05
2018-12-15T09:53:07.982Z,30.80
2018-12-15T09:55:49.520Z,32.23
2018-12-15T09:58:18.947Z,35.03
2018-12-15T10:01:00.201Z,28.12
2018-12-15T10:03:29.849Z,34.30
2018-12-15T10:06:11.059Z,33.88
2018-12-15T10:08:40.613Z,37.42
2018-12-15T10:11:21.844Z,32.83
2018-12-15T10:13:52.405Z,32.53
2018-12-15T10:16:33.470Z,34.08
2018-12-15T10:19:03.837Z,31.05
2018-12-15T10:21:48.050Z,33.63
2018-12-15T10:24:17.169Z,35.85
2018-12-15T10:26:58.221Z,34.38
2018-12-15T10:29:33.365Z,29.70
2018-12-15T10:32:26.158Z,32.58
2018-12-15T10:34:55.866Z,38.95
2018-12-15T10:37:37.216Z,42.62
2018-12-15T10:40:06.742Z,32.53
2018-12-15T10:42:48.230Z,36.25
2018-12-15T10:45:17.681Z,31.15
2018-12-15T10:47:58.741Z,33.65
2018-12-15T10:50:27.850Z,31.10
2018-12-15T10:53:08.870Z,36.30
2018-12-15T10:55:37.833Z,35.60
2018-12-15T10:58:18.873Z,35.05
2018-12-15T11:00:53.302Z,30.08
2018-12-15T11:03:40.492Z,38.08
2018-12-15T11:06:09.596Z,32.70
2018-12-15T11:08:51.071Z,33.83
2018-12-15T11:11:20.286Z,31.85
2018-12-15T11:14:01.471Z,37.33
2018-12-15T11:16:30.577Z,31.57
2018-12-15T11:19:11.609Z,34.75
2018-12-15T11:21:40.773Z,35.33
2018-12-15T11:24:21.898Z,30.48
2018-12-15T11:26:50.956Z,30.72
2018-12-15T11:29:32.021Z,35.68
2018-12-15T11:32:01.525Z,31.93
2018-12-15T11:34:42.725Z,34.70
2018-12-15T11:37:11.696Z,35.45
2018-12-15T11:39:52.721Z,31.75
2018-12-15T11:42:21.894Z,33.33
2018-12-15T11:45:03.218Z,31.30
2018-12-15T11:47:32.431Z,30.82
2018-12-15T11:50:13.426Z,34.38
2018-12-15T11:52:44.210Z,32.60
2018-12-15T11:55:25.432Z,34.70
2018-12-15T11:57:54.398Z,33.33
2018-12-15T12:00:35.554Z,29.77
2018-12-15T12:03:04.530Z,30.45
2018-12-15T12:05:45.653Z,29.65
2018-12-15T12:08:14.521Z,27.52
2018-12-15T12:10:55.529Z,30.50
2018-12-15T12:13:24.509Z,26.70
2018-12-15T12:16:05.649Z,38.92
2018-12-15T12:18:34.526Z,34.50
2018-12-15T12:21:15.555Z,33.55
2018-12-15T12:23:46.847Z,34.13
2018-12-15T12:26:27.998Z,32.00
2018-12-15T12:28:56.859Z,34.00
2018-12-15T12:31:38.314Z,33.73
2018-12-15T12:34:07.271Z,27.50
2018-12-15T12:36:48.681Z,30.57
2018-12-15T12:39:17.561Z,28.87
2018-12-15T12:41:59.234Z,30.05
2018-12-15T12:44:28.181Z,29.65
2018-12-15T12:47:09.198Z,31.77
2018-12-15T12:49:38.446Z,28.75
2018-12-15T12:52:19.574Z,30.05
2018-12-15T12:54:48.797Z,34.70
2018-12-15T12:57:29.827Z,32.28
2018-12-15T12:59:58.705Z,32.58
2018-12-15T13:02:46.714Z,32.93
2018-12-15T13:05:16.014Z,32.35
2018-12-15T13:07:57.098Z,28.75
2018-12-15T13:10:26.442Z,27.55
2018-12-15T13:13:07.523Z,32.42
2018-12-15T13:15:36.530Z,29.77
2018-12-15T13:18:17.543Z,31.20
2018-12-15T13:20:46.950Z,29.93
2018-12-15T13:23:28.261Z,34.30
2018-12-15T13:25:57.630Z,23.80
2018-12-15T13:28:38.693Z,28.90
2018-12-15T13:31:07.698Z,32.78
2018-12-15T13:33:48.839Z,28.15
2018-12-15T13:36:18.952Z,36.17
2018-12-15T13:39:00.003Z,31.60
2018-12-15T13:41:28.872Z,33.08
2018-12-15T13:44:09.976Z,22.02
2018-12-15T13:46:38.884Z,25.60
2018-12-15T13:49:20.025Z,27.87
2018-12-15T13:51:48.921Z,19.70
2018-12-15T13:54:31.015Z,17.23
2018-12-15T13:56:59.901Z,21.90
2018-12-15T13:59:40.937Z,14.78
2018-12-15T14:02:09.913Z,11.60
2018-12-15T14:04:50.953Z,14.73
2018-12-15T14:07:19.946Z,12.88
2018-12-15T14:10:00.961Z,8.95
2018-12-15T14:12:29.913Z,12.23
2018-12-15T14:15:11.019Z,10.28
2018-12-15T14:17:40.694Z,10.40
2018-12-15T14:20:22.193Z,10.43
2018-12-15T14:22:51.385Z,9.68
2018-12-15T14:25:32.452Z,12.10
2018-12-15T14:28:01.318Z,12.07
2018-12-15T14:30:42.724Z,13.48
2018-12-15T14:33:11.578Z,9.38
2018-12-15T14:35:52.602Z,9.85
2018-12-15T14:38:21.457Z,10.18
2018-12-15T14:41:02.482Z,12.37
2018-12-15T14:43:31.361Z,9.85
2018-12-15T14:46:12.492Z,8.35
2018-12-15T14:48:41.357Z,14.28
2018-12-15T14:51:22.406Z,12.53
2018-12-15T14:53:51.366Z,10.45
2018-12-15T14:56:32.372Z,15.03
2018-12-15T14:59:01.241Z,15.55
2018-12-15T15:01:57.247Z,16.67
2018-12-15T15:04:26.137Z,10.58
2018-12-15T15:07:07.179Z,12.53
2018-12-15T15:09:36.046Z,15.45
2018-12-15T15:12:17.053Z,14.15
2018-12-15T15:14:46.769Z,12.25
2018-12-15T15:17:27.917Z,10.28
2018-12-15T15:19:57.677Z,12.95
2018-12-15T15:22:38.735Z,17.00
2018-12-15T15:25:08.025Z,13.60
2018-12-15T15:27:49.021Z,17.98
2018-12-15T15:30:17.896Z,14.93
2018-12-15T15:32:58.905Z,13.58
2018-12-15T15:35:27.793Z,12.53
2018-12-15T15:38:08.957Z,16.45
2018-12-15T15:40:37.989Z,16.30
2018-12-15T15:43:19.037Z,10.50
2018-12-15T15:45:48.727Z,16.32
2018-12-15T15:48:29.739Z,18.25
2018-12-15T15:50:58.691Z,15.38
2018-12-15T15:53:39.830Z,11.57
2018-12-15T15:56:08.711Z,9.10
2018-12-15T15:58:50.037Z,9.33
2018-12-15T16:01:19.178Z,11.25
2018-12-15T16:04:00.405Z,11.33
2018-12-15T16:06:29.303Z,13.78
2018-12-15T16:09:10.667Z,13.22
2018-12-15T16:11:40.037Z,14.23
2018-12-15T16:14:21.112Z,10.60
2018-12-15T16:16:50.116Z,11.50
2018-12-15T16:19:31.194Z,11.03
2018-12-15T16:22:02.029Z,11.08
2018-12-15T16:24:43.118Z,13.55
2018-12-15T16:27:12.081Z,12.10
2018-12-15T16:29:53.120Z,17.02
2018-12-15T16:32:22.134Z,12.63
2018-12-15T16:35:04.116Z,14.28
2018-12-15T16:37:33.193Z,9.70
2018-12-15T16:40:14.224Z,9.85
2018-12-15T16:42:43.235Z,14.20
2018-12-15T16:45:24.381Z,9.00
2018-12-15T16:47:53.821Z,12.50
2018-12-15T16:50:34.875Z,10.72
2018-12-15T16:53:03.961Z,14.10
2018-12-15T16:55:45.069Z,10.70
2018-12-15T16:58:14.126Z,12.40
2018-12-15T17:00:55.170Z,9.90
2018-12-15T17:03:30.379Z,13.62
2018-12-15T17:06:07.181Z,11.95
2018-12-15T17:08:36.046Z,23.00
2018-12-15T17:11:17.049Z,14.28
2018-12-15T17:13:46.021Z,12.47
2018-12-15T17:16:27.089Z,13.88
2018-12-15T17:18:55.973Z,14.05
2018-12-15T17:21:36.972Z,8.58
2018-12-15T17:24:07.073Z,10.68
2018-12-15T17:26:48.626Z,8.20
2018-12-15T17:29:18.951Z,8.78
2018-12-15T17:32:00.117Z,11.93
2018-12-15T17:34:29.087Z,8.95
2018-12-15T17:37:10.074Z,8.23
2018-12-15T17:39:39.107Z,10.50
2018-12-15T17:42:20.121Z,11.22
2018-12-15T17:44:49.465Z,11.18
2018-12-15T17:47:31.550Z,12.43
2018-12-15T17:50:00.522Z,10.98
2018-12-15T17:52:41.873Z,11.38
2018-12-15T17:55:10.888Z,38.95
2018-12-15T17:57:52.112Z,19.67
2018-12-15T18:00:29.326Z,12.60
2018-12-15T18:03:10.378Z,23.22
2018-12-15T18:05:39.766Z,13.58
2018-12-15T18:08:21.137Z,9.58
2018-12-15T18:10:50.455Z,12.13
2018-12-15T18:13:32.049Z,15.98
2018-12-15T18:16:01.679Z,15.95
2018-12-15T18:18:42.677Z,14.15
2018-12-15T18:21:11.965Z,12.85
2018-12-15T18:23:53.389Z,12.55
2018-12-15T18:26:22.490Z,11.12
2018-12-15T18:29:03.881Z,8.93
2018-12-15T18:31:32.806Z,14.33
2018-12-15T18:34:14.198Z,11.85
2018-12-15T18:36:43.096Z,14.00
2018-12-15T18:39:24.267Z,10.05
2018-12-15T18:41:53.153Z,10.23
2018-12-15T18:44:34.226Z,12.30
2018-12-15T18:47:03.298Z,9.00
2018-12-15T18:49:44.357Z,9.40
2018-12-15T18:52:13.269Z,8.48
2018-12-15T18:54:55.183Z,8.60
2018-12-15T18:57:24.842Z,8.75
2018-12-15T19:00:15.986Z,12.53
2018-12-15T19:02:45.042Z,11.83
2018-12-15T19:05:26.125Z,9.38
2018-12-15T19:07:55.009Z,13.20
2018-12-15T19:10:36.036Z,15.23
2018-12-15T19:13:05.164Z,14.95
2018-12-15T19:15:46.514Z,16.60
2018-12-15T19:18:30.816Z,14.63
2018-12-15T19:23:39.813Z,12.28
2018-12-15T19:26:08.850Z,14.58
2018-12-15T19:28:50.235Z,9.03
2018-12-15T19:31:19.303Z,12.37
2018-12-15T19:34:00.747Z,12.47
2018-12-15T19:36:29.700Z,10.43
2018-12-15T19:39:10.709Z,10.95
2018-12-15T19:41:39.994Z,13.43
2018-12-15T19:44:21.026Z,14.07
2018-12-15T19:46:49.929Z,11.30
2018-12-15T19:49:31.056Z,13.38
2018-12-15T19:52:00.180Z,11.22
2018-12-15T19:54:41.182Z,22.05
2018-12-15T19:57:10.217Z,22.98
2018-12-15T19:59:51.371Z,11.50
2018-12-15T20:02:20.622Z,14.58
2018-12-15T20:05:01.739Z,14.58
2018-12-15T20:07:30.748Z,11.70
2018-12-15T20:10:11.867Z,12.80
2018-12-15T20:12:42.653Z,10.63
2018-12-15T20:15:23.819Z,10.82
2018-12-15T20:17:52.871Z,10.70
2018-12-15T20:20:34.653Z,14.05
2018-12-15T20:23:04.131Z,9.80
2018-12-15T20:25:45.238Z,14.60
2018-12-15T20:28:14.132Z,12.50
2018-12-15T20:30:55.717Z,14.00
2018-12-15T20:33:25.244Z,11.38
2018-12-15T20:36:06.278Z,11.83
2018-12-15T20:38:36.141Z,15.35
2018-12-15T20:41:17.206Z,11.78
2018-12-15T20:43:46.095Z,12.73
2018-12-15T20:46:27.122Z,13.55
2018-12-15T20:48:56.036Z,11.33
2018-12-15T20:51:42.766Z,6.95
2018-12-15T20:54:20.438Z,9.88
2018-12-15T20:56:49.302Z,9.33
2018-12-15T20:59:30.581Z,9.48
2018-12-15T21:02:01.475Z,10.63
2018-12-15T21:04:43.382Z,11.95
2018-12-15T21:07:12.343Z,23.42
2018-12-15T21:09:53.353Z,26.20
2018-12-15T21:12:22.691Z,31.42
2018-12-15T21:15:10.338Z,30.85
2018-12-15T21:17:39.210Z,26.45
2018-12-15T21:20:20.219Z,20.00
2018-12-15T21:22:49.073Z,24.72
2018-12-15T21:25:30.206Z,21.95
2018-12-15T21:27:59.068Z,27.52
2018-12-15T21:30:40.078Z,27.87
2018-12-15T21:33:09.082Z,29.65
2018-12-15T21:35:50.294Z,25.30
2018-12-15T21:38:19.177Z,27.90
2018-12-15T21:41:00.186Z,24.47
2018-12-15T21:43:29.073Z,23.27
2018-12-15T21:46:10.157Z,22.67
2018-12-15T21:48:39.048Z,28.45
2018-12-15T21:51:20.083Z,32.28
2018-12-15T21:53:49.079Z,28.45
2018-12-15T21:56:30.077Z,32.33
2018-12-15T21:58:58.980Z,34.78
2018-12-15T22:01:42.103Z,25.27
2018-12-15T22:04:11.458Z,34.05
2018-12-15T22:06:52.513Z,31.65
2018-12-15T22:09:21.390Z,30.35
2018-12-15T22:12:02.426Z,29.60
2018-12-15T22:14:31.375Z,30.60
2018-12-15T22:17:12.374Z,34.20
2018-12-15T22:19:41.524Z,33.13
2018-12-15T22:22:22.513Z,30.55
2018-12-15T22:24:51.613Z,32.60
2018-12-15T22:27:32.646Z,30.00
2018-12-15T22:30:01.506Z,28.50
2018-12-15T22:32:42.569Z,34.98
2018-12-15T22:35:11.929Z,27.67
2018-12-15T22:37:52.945Z,33.80
2018-12-15T22:40:22.223Z,29.50
2018-12-15T22:43:03.229Z,30.55
2018-12-15T22:45:33.284Z,31.73
2018-12-15T22:48:14.305Z,37.63
2018-12-15T22:50:43.153Z,37.15
2018-12-15T22:53:24.178Z,33.05
2018-12-15T22:58:33.701Z,40.58
2018-12-15T23:01:08.410Z,38.98
2018-12-15T23:03:49.541Z,37.60
2018-12-15T23:08:58.750Z,48.15
2018-12-15T23:11:27.621Z,40.33
2018-12-15T23:14:08.658Z,45.40
2018-12-15T23:16:37.518Z,40.55
2018-12-15T23:19:18.568Z,50.43
2018-12-15T23:21:47.909Z,58.13
2018-12-15T23:24:29.021Z,57.98
2018-12-15T23:26:58.386Z,64.55
2018-12-15T23:29:39.632Z,53.52
2018-12-15T23:32:08.522Z,49.03
2018-12-15T23:34:49.641Z,52.85
2018-12-15T23:37:49.391Z,47.95
2018-12-15T23:40:30.628Z,46.80
2018-12-15T23:42:59.686Z,51.60
2018-12-15T23:45:40.937Z,40.83
2018-12-15T23:50:49.535Z,43.87
2018-12-15T23:53:18.366Z,37.23
2018-12-15T23:55:59.496Z,44.33
2018-12-15T23:58:43.439Z,52.10
